In Rescue
 
Open Full Screen Window  High Contrast Mode
November 27, 2020 10:48 PM CST
Weather Information
Wind Direction
  ---
Wind Speed
  00 kt (0 mph)
Wind Gust
  00 kt (0 mph)
Altimeter
30.04 in
Visibility
10 SM
Temperature
-02° C
28° F
Dewpoint
-05° C
23° F
Humidity
80%
1hr Rain Fall
00.00 in.
24hr Rain Fall
00.00 in.
Sky Condition
Clear
VFR

METAR KSGS 280448Z AUTO 00000KT 10SM CLR M02/M05 A3004 RMK AO2 T10221053 PWINO

FAA Disclaimer: The data displayed is for advisory purposes only and is not to be used for flight planning or operations.